St-Hubert, Belgium
Current Conditions -  °F | °C
As of 12:25 PM on Wednesday 26 Nov 2014 (Local Time) from EBFS Reporting Station
Haze Haze  
Wind Chill:   Ceiling: 600
Heat Index:   Visibility: 2.5mi
Dew Point:   Wind: 7mph
Humidity: 100%   Direction: 130°SE
Pressure: 29.88"   Gusts: NA
Location:  50.03°N, 5.4°E
Report Text: EBFS 261125Z 13006KT 4000 BR SCT004 BKN006 BKN009 07/07 Q1012 YLO YLO TEMPO GRN
Loading
Personal Weather Stations






























Interactive Weather Map New forecast layout! Learn more

10-Day Weather Forecast

Advertisements
Track Severe Weather on mobile